Flight Track Log - Related Links

Times and Time Zones

All times are in EDT time to prevent confusion due to time zone crossing. See the CHQ6101 flight status page for this flight to view local times or setup timezone preferences in your user account.

Time Position Orientation Groundspeed Altitude Reporting Facility
EDT Latitude Longitude Course Direction KTS MPH feet Rate Location/Type
Sun 01:56:21 PM 40.7500 -73.8500 27° Northeast 158 182 1,800  Level New York TRACON
Sun 01:58:34 PM 40.8114 -73.7572 49° Northeast 223 257 6,400 2,227 Climbing Boston Center
Sun 01:59:00 PM 41.1321 -73.5842 28° Northeast  Level FlightAware Approximate
Sun 01:59:35 PM 40.8806 -73.7156 24° Northeast 268 308 9,000  Level Boston Center
Sun 02:00:00 PM 41.2209 -73.5068 33° Northeast  Level FlightAware Approximate
Sun 02:00:36 PM 40.9481 -73.6692 27° Northeast 271 312 11,300  Level Boston Center
Sun 02:01:00 PM 41.3126 -73.4360 27° Northeast  Level FlightAware Approximate
Sun 02:01:37 PM 41.0383 -73.6097 26° Northeast 310 357 13,500  Level Boston Center
Sun 02:02:38 PM 41.1047 -73.5292 42° Northeast 326 375 15,100 1,525 Climbing Boston Center
Sun 02:03:39 PM 41.1736 -73.4414 44° Northeast 339 390 16,600 1,317 Climbing Boston Center
Sun 02:04:41 PM 41.2492 -73.3589 39° Northeast 350 403 17,800 1,610 Climbing Boston Center
Sun 02:05:42 PM 41.3419 -73.2997 26° Northeast 351 404 19,900 1,967 Climbing Boston Center
Sun 02:06:43 PM 41.4267 -73.2394 28° Northeast 350 403 21,800 1,967 Climbing Boston Center
Sun 02:07:44 PM 41.5006 -73.1531 41° Northeast 349 402 23,900 1,918 Climbing Boston Center
Sun 02:08:45 PM 41.5658 -73.0725 43° Northeast 351 404 25,700 1,525 Climbing Boston Center
Sun 02:09:46 PM 41.6383 -72.9853 42° Northeast 351 404 27,000 639 Climbing Boston Center
Sun 02:10:47 PM 41.7133 -72.8947 42° Northeast 361 415 27,000  Level Boston Center
Sun 02:11:48 PM 41.8058 -72.7797 43° Northeast 375 432 27,000  Level Boston Center
Sun 02:12:50 PM 41.8836 -72.6847 42° Northeast 377 434 27,000  Level Boston Center
Sun 02:13:51 PM 41.9619 -72.5883 42° Northeast 380 437 27,000  Level Boston Center
Sun 02:14:52 PM 42.0406 -72.4914 42° Northeast 383 441 27,000  Level Boston Center
Sun 02:15:53 PM 42.1186 -72.3936 43° Northeast 384 442 27,000  Level Boston Center
Sun 02:16:54 PM 42.1978 -72.2964 42° Northeast 386 444 27,000  Level Boston Center
Sun 02:17:55 PM 42.2758 -72.1972 43° Northeast 386 444 27,000  Level Boston Center
Sun 02:18:56 PM 42.3553 -72.0972 43° Northeast 389 448 27,000  Level Boston Center
Sun 02:19:58 PM 42.4500 -71.9783 43° Northeast 389 448 27,000  Level Boston Center
Sun 02:20:59 PM 42.5286 -71.8781 43° Northeast 389 448 27,000  Level Boston Center
Sun 02:22:00 PM 42.6078 -71.7781 43° Northeast 390 449 27,000  Level Boston Center
Sun 02:23:01 PM 42.6869 -71.6769 43° Northeast 390 449 27,000  Level Boston Center
Sun 02:24:03 PM 42.7656 -71.5753 43° Northeast 390 449 27,000  Level Boston Center
Sun 02:25:04 PM 42.8517 -71.4667 43° Northeast 390 449 27,000  Level Boston Center
Sun 02:26:05 PM 42.9314 -71.3650 43° Northeast 391 450 27,000  Level Boston Center
Sun 02:27:06 PM 43.0106 -71.2619 44° Northeast 391 450 27,000  Level Boston Center
Sun 02:28:08 PM 43.0897 -71.1586 44° Northeast 391 450 27,000  Level Boston Center
Sun 02:29:09 PM 43.1697 -71.0542 44° Northeast 397 457 27,000  Level Boston Center
Sun 02:30:10 PM 43.2511 -70.9489 43° Northeast 397 457 27,000 -98 Level Boston Center
Sun 02:31:12 PM 43.3303 -70.8419 44° Northeast 398 458 26,800 -1,171 Descending Boston Center
Sun 02:32:13 PM 43.4217 -70.7239 43° Northeast 384 442 24,600 -1,770 Descending Boston Center
Sun 02:33:14 PM 43.4961 -70.6250 44° Northeast 374 430 23,200 -1,805 Descending Boston Center
Sun 02:34:16 PM 43.5681 -70.5294 44° Northeast 362 417 20,900 -2,244 Descending Boston Center
Sun 02:35:17 PM 43.6414 -70.4325 44° Northeast 356 410 18,600 -1,967 Descending Boston Center
Sun 02:36:18 PM 43.7147 -70.3344 44° Northeast 347 399 16,900 -1,707 Descending Boston Center
Sun 02:37:20 PM 43.7789 -70.2467 45° Northeast 332 382 15,100 -1,854 Descending Boston Center
Sun 02:38:21 PM 43.8450 -70.1581 44° Northeast 317 365 13,100 -1,967 Descending Boston Center
Sun 02:39:22 PM 43.9053 -70.0778 44° Northeast 306 352 11,100 -1,024 Descending Boston Center
Sun 02:40:24 PM 43.9672 -69.9942 44° Northeast 312 359 11,000 -49 Descending Boston Center
Sun 02:41:25 PM 44.0333 -69.9039 44° Northeast 309 356 11,000  Level Boston Center
Sun 02:42:27 PM 44.0917 -69.8242 44° Northeast 297 342 11,000 49 Level Boston Center
Sun 02:43:28 PM 44.1494 -69.7464 44° Northeast 292 336 11,100  Climbing Boston Center
Sun 02:44:29 PM 44.2072 -69.6647 45° Northeast 291 335 11,000  Descending Boston Center
Sun 02:45:31 PM 44.2675 -69.5861 43° Northeast 295 339 11,100 49 Climbing Boston Center
Sun 02:46:32 PM 44.3364 -69.5186 35° Northeast 300 345 11,100 -98 Level Boston Center
Sun 02:47:34 PM 44.4050 -69.4472 37° Northeast 304 350 10,900 -683 Descending Boston Center
Sun 02:48:35 PM 44.4689 -69.3789 37° Northeast 295 339 9,700 -1,082 Descending Boston Center
Sun 02:49:36 PM 44.5247 -69.3222 36° Northeast 260 299 8,700 -1,024 Descending Boston Center
Sun 02:50:38 PM 44.5750 -69.2706 36° Northeast 233 268 7,600 -1,171 Descending Boston Center
Sun 02:51:39 PM 44.6225 -69.2186 38° Northeast 222 255 6,300 -1,230 Descending Boston Center
Sun 02:52:40 PM 44.6806 -69.1589 36° Northeast 220 253 5,100 -732 Descending Boston Center
Sun 02:53:42 PM 44.7286 -69.1083 37° Northeast 219 252 4,800 -683 Descending Boston Center
Sun 02:54:43 PM 44.7761 -69.0575 37° Northeast 219 252 3,700 -878 Descending Boston Center
Sun 02:55:45 PM 44.8217 -69.0089 37° Northeast 212 244 3,000 -537 Descending Boston Center
Sun 02:56:46 PM 44.8619 -68.9672 36° Northeast 190 219 2,600 -689 Descending Boston Center
Sun 02:57:47 PM 44.8622 -68.9128 90° East 169 194 1,600 -878 Descending Boston Center
Sun 02:58:49 PM 44.8356 -68.8700 131° Southeast 152 175 800 -634 Descending Boston Center
Sun 02:59:50 PM 44.8056 -68.8267 134° Southeast 147 169 300 -492 Descending Boston Center

Login

Don't have an account? Register now (free) for customized features, flight alerts, and more!